| time (UTC) | temp F | wind direction | speed knots | gust knots | rain 1hr in | rain 24hr in | rain mn in | humidity % | barometer mb |
| 20260509212520 | 65 | 240 | 2.6 | 6.1 | 0.00 | 0.07 | 0.05 | 64 | 1007.6 |
| 20260509211519 | 66 | 226 | 2.6 | 7.0 | 0.00 | 0.07 | 0.05 | 62 | 1007.4 |
| 20260509210518 | 66 | 288 | 2.6 | 7.8 | 0.00 | 0.07 | 0.05 | 65 | 1007.5 |
| 20260509205539 | 67 | 210 | 1.7 | 5.2 | 0.00 | 0.07 | 0.05 | 64 | 1007.7 |
| 20260509204516 | 66 | 259 | 2.6 | 6.1 | 0.00 | 0.07 | 0.05 | 66 | 1007.8 |
| 20260509203520 | 65 | 227 | 2.6 | 5.2 | 0.00 | 0.07 | 0.05 | 65 | 1007.8 |
| 20260509202520 | 64 | 248 | 3.5 | 7.8 | 0.00 | 0.07 | 0.05 | 67 | 1008.0 |
| 20260509201520 | 64 | 216 | 2.6 | 6.1 | 0.00 | 0.07 | 0.05 | 69 | 1008.1 |
| 20260509200600 | 64 | 246 | 2.6 | 7.8 | 0.00 | 0.07 | 0.05 | 68 | 1008.1 |
| 20260509195517 | 64 | 215 | 3.5 | 12.2 | 0.00 | 0.07 | 0.05 | 68 | 1008.1 |
| 20260509194517 | 64 | 222 | 1.7 | 6.1 | 0.00 | 0.07 | 0.05 | 70 | 1008.4 |
| 20260509193518 | 65 | 252 | 3.5 | 7.0 | 0.00 | 0.08 | 0.05 | 68 | 1008.4 |
| 20260509192520 | 64 | 241 | 2.6 | 5.2 | 0.00 | 0.08 | 0.05 | 72 | 1008.3 |
| 20260509191518 | 64 | 188 | 2.6 | 5.2 | 0.00 | 0.08 | 0.05 | 71 | 1008.4 |
| 20260509190518 | 63 | 238 | 1.7 | 5.2 | 0.00 | 0.09 | 0.05 | 73 | 1008.7 |
| 20260509185538 | 63 | 252 | 1.7 | 5.2 | 0.00 | 0.10 | 0.05 | 74 | 1008.8 |
| 20260509184518 | 62 | 286 | 2.6 | 6.1 | 0.00 | 0.10 | 0.05 | 76 | 1008.8 |
| 20260509183518 | 63 | 218 | 1.7 | 4.3 | 0.00 | 0.10 | 0.05 | 75 | 1008.8 |
| 20260509182539 | 63 | 199 | 1.7 | 6.1 | 0.00 | 0.10 | 0.05 | 75 | 1008.9 |
| 20260509181519 | 61 | 208 | 1.7 | 5.2 | 0.00 | 0.10 | 0.05 | 77 | 1008.9 |
| 20260509180519 | 59 | 218 | 1.7 | 6.1 | 0.00 | 0.10 | 0.05 | 80 | 1009.2 |
| 20260509175519 | 59 | 226 | 1.7 | 5.2 | 0.00 | 0.10 | 0.05 | 81 | 1009.2 |
| 20260509174520 | 59 | 266 | 0.9 | 3.5 | 0.00 | 0.10 | 0.05 | 82 | 1009.2 |
| 20260509173520 | 60 | 197 | 1.7 | 6.1 | 0.00 | 0.10 | 0.05 | 80 | 1009.2 |
| 20260509172520 | 61 | 287 | 1.7 | 4.3 | 0.00 | 0.10 | 0.05 | 82 | 1009.0 |
| 20260509171517 | 60 | 279 | 1.7 | 5.2 | 0.00 | 0.10 | 0.05 | 83 | 1008.8 |
| 20260509170517 | 59 | 290 | 1.7 | 7.0 | 0.00 | 0.10 | 0.05 | 84 | 1008.9 |
| 20260509165520 | 59 | 220 | 1.7 | 5.2 | 0.00 | 0.10 | 0.05 | 85 | 1008.8 |
| 20260509164521 | 59 | 253 | 1.7 | 5.2 | 0.00 | 0.10 | 0.05 | 86 | 1008.8 |
| 20260509163521 | 58 | 245 | 2.6 | 4.3 | 0.00 | 0.10 | 0.05 | 87 | 1008.6 |
| 20260509162518 | 59 | 268 | 1.7 | 4.3 | 0.00 | 0.10 | 0.05 | 89 | 1008.8 |
| 20260509161518 | 59 | 281 | 1.7 | 4.3 | 0.00 | 0.10 | 0.05 | 90 | 1009.0 |
| 20260509160518 | 59 | 209 | 2.6 | 5.2 | 0.00 | 0.10 | 0.05 | 92 | 1008.6 |
| 20260509155530 | 57 | 351 | 1.7 | 4.3 | 0.00 | 0.10 | 0.05 | 97 | 1008.5 |
| 20260509154530 | 55 | 225 | 1.7 | 3.5 | 0.00 | 0.10 | 0.05 | 97 | 1008.7 |
| 20260509153530 | 54 | 331 | 0.9 | 2.6 | 0.00 | 0.10 | 0.05 | 97 | 1008.8 |
| 20260509152531 | 54 | 231 | 0.9 | 2.6 | 0.00 | 0.10 | 0.05 | 97 | 1008.8 |
| 20260509151520 | 53 | 21 | 1.7 | 5.2 | 0.00 | 0.10 | 0.05 | 97 | 1008.6 |
| 20260509150550 | 53 | 176 | 0.9 | 3.5 | 0.00 | 0.10 | 0.05 | 98 | 1008.8 |
| 20260509145531 | 53 | 219 | 1.7 | 3.5 | 0.00 | 0.10 | 0.05 | 98 | 1008.9 |
| 20260509144531 | 53 | 173 | 1.7 | 2.6 | 0.00 | 0.10 | 0.05 | 98 | 1008.9 |
| 20260509143531 | 53 | 243 | 0.9 | 2.6 | 0.00 | 0.10 | 0.05 | 98 | 1008.8 |
| 20260509142551 | 53 | 198 | 0.9 | 1.7 | 0.00 | 0.10 | 0.05 | 98 | 1008.8 |
| 20260509141532 | 52 | 183 | 0.9 | 1.7 | 0.01 | 0.10 | 0.05 | 98 | 1008.9 |
| 20260509140520 | 52 | 241 | 0.9 | 5.2 | 0.01 | 0.10 | 0.05 | 98 | 1009.0 |
| 20260509135517 | 52 | 306 | 0.9 | 1.7 | 0.01 | 0.10 | 0.05 | 98 | 1008.9 |
| 20260509134557 | 52 | 30 | 0.9 | 2.6 | 0.02 | 0.10 | 0.05 | 98 | 1009.0 |
| 20260509133517 | 52 | 1 | 1.7 | 3.5 | 0.02 | 0.10 | 0.05 | 98 | 1009.1 |
| 20260509132537 | 52 | 200 | 0.9 | 2.6 | 0.02 | 0.10 | 0.05 | 98 | 1009.2 |
| 20260509131518 | 51 | 198 | 0.9 | 1.7 | 0.02 | 0.09 | 0.04 | 98 | 1009.2 |
| 20260509130521 | 51 | 321 | 1.7 | 6.1 | 0.02 | 0.09 | 0.04 | 98 | 1009.1 |
| 20260509125538 | 51 | 28 | 0.9 | 2.6 | 0.02 | 0.09 | 0.04 | 98 | 1009.2 |
| 20260509124518 | 51 | 210 | 0.9 | 2.6 | 0.02 | 0.08 | 0.03 | 98 | 1009.3 |
| 20260509123519 | 51 | 10 | 1.7 | 3.5 | 0.01 | 0.08 | 0.03 | 98 | 1009.3 |
| 20260509122518 | 51 | 324 | 0.9 | 1.7 | 0.02 | 0.08 | 0.03 | 98 | 1009.3 |
| 20260509121539 | 51 | 291 | 0.9 | 1.7 | 0.02 | 0.08 | 0.02 | 97 | 1009.4 |
| 20260509120519 | 51 | 166 | 0.9 | 1.7 | 0.02 | 0.07 | 0.02 | 97 | 1009.4 |
| 20260509115519 | 51 | 179 | 0.0 | 1.7 | 0.01 | 0.07 | 0.02 | 97 | 1009.4 |
| 20260509114519 | 51 | 246 | 0.9 | 1.7 | 0.01 | 0.07 | 0.02 | 97 | 1009.3 |
| 20260509113539 | 51 | 199 | 0.9 | 1.7 | 0.01 | 0.07 | 0.02 | 97 | 1009.3 |
| 20260509112519 | 51 | 237 | 0.9 | 1.7 | 0.01 | 0.06 | 0.01 | 97 | 1009.2 |
| 20260509111520 | 51 | 283 | 0.9 | 1.7 | 0.00 | 0.06 | 0.00 | 98 | 1009.1 |
| 20260509110520 | 51 | 319 | 0.9 | 2.6 | 0.00 | 0.06 | 0.00 | 98 | 1009.0 |
| 20260509105520 | 50 | 295 | 0.9 | 3.5 | 0.00 | 0.06 | 0.00 | 98 | 1009.0 |
| 20260509104520 | 50 | 283 | 0.9 | 2.6 | 0.00 | 0.06 | 0.00 | 98 | 1008.9 |
| 20260509103520 | 50 | 353 | 0.9 | 3.5 | 0.00 | 0.06 | 0.00 | 99 | 1008.9 |
| 20260509102520 | 50 | 336 | 0.9 | 2.6 | 0.00 | 0.06 | 0.00 | 99 | 1009.0 |
| 20260509101521 | 49 | 343 | 0.0 | 1.7 | 0.00 | 0.06 | 0.00 | 99 | 1009.0 |
| 20260509100521 | 49 | 342 | 0.9 | 1.7 | 0.00 | 0.06 | 0.00 | 99 | 1009.1 |
| 20260509095521 | 49 | 83 | 0.9 | 1.7 | 0.00 | 0.06 | 0.00 | 99 | 1009.1 |
| 20260509094521 | 49 | 41 | 0.0 | 1.7 | 0.00 | 0.06 | 0.00 | 99 | 1009.1 |
| 20260509093521 | 49 | 327 | 0.0 | 0.9 | 0.00 | 0.05 | 0.00 | 99 | 1009.2 |
| 20260509092521 | 49 | 354 | 0.0 | 1.7 | 0.00 | 0.05 | 0.00 | 98 | 1009.4 |
| 20260509091522 | 48 | 26 | 0.0 | 1.7 | 0.00 | 0.05 | 0.00 | 98 | 1009.5 |
| 20260509090522 | 48 | 94 | 0.0 | 0.9 | 0.00 | 0.05 | 0.00 | 98 | 1009.5 |
| 20260509085542 | 48 | 148 | 0.0 | 0.9 | 0.00 | 0.05 | 0.00 | 98 | 1009.5 |
| 20260509084522 | 48 | 274 | 0.0 | 0.9 | 0.00 | 0.05 | 0.00 | 98 | 1009.6 |
| 20260509083522 | 48 | 0.0 | 0.0 | 0.00 | 0.05 | 0.00 | 98 | 1009.7 | |
| 20260509082522 | 48 | 336 | 0.0 | 0.9 | 0.00 | 0.05 | 0.00 | 98 | 1009.5 |
| 20260509081523 | 48 | 134 | 0.0 | 0.9 | 0.00 | 0.05 | 0.00 | 98 | 1009.4 |
| 20260509080523 | 48 | 0.0 | 0.0 | 0.00 | 0.05 | 0.00 | 98 | 1009.5 | |
| 20260509075523 | 48 | 343 | 0.0 | 0.9 | 0.00 | 0.05 | 0.00 | 98 | 1009.4 |
| 20260509074523 | 48 | 175 | 0.0 | 2.6 | 0.00 | 0.05 | 0.00 | 98 | 1009.6 |
| 20260509073543 | 48 | 6 | 0.0 | 1.7 | 0.00 | 0.05 | 0.00 | 98 | 1009.4 |
| 20260509072543 | 48 | 0.0 | 0.0 | 0.00 | 0.05 | 0.00 | 98 | 1009.4 | |
| 20260509071544 | 48 | 352 | 0.0 | 0.9 | 0.00 | 0.05 | 0.00 | 98 | 1009.4 |
| 20260509070524 | 48 | 323 | 0.0 | 0.9 | 0.00 | 0.05 | 0.00 | 98 | 1009.3 |
| 20260509065544 | 48 | 339 | 0.0 | 0.9 | 0.00 | 0.05 | 0.00 | 98 | 1009.4 |
| 20260509064524 | 48 | 321 | 0.0 | 0.9 | 0.00 | 0.05 | 0.00 | 98 | 1009.5 |
| 20260509063525 | 48 | 0.0 | 0.0 | 0.00 | 0.05 | 0.00 | 98 | 1009.7 | |
| 20260509062524 | 48 | 8 | 0.0 | 0.9 | 0.00 | 0.05 | 0.00 | 98 | 1009.8 |
| 20260509061524 | 48 | 90 | 0.0 | 0.9 | 0.00 | 0.05 | 0.00 | 98 | 1009.9 |
| 20260509060545 | 48 | 286 | 0.0 | 0.9 | 0.00 | 0.05 | 0.00 | 98 | 1010.1 |
| 20260509055545 | 48 | 327 | 0.0 | 0.9 | 0.00 | 0.05 | 0.00 | 98 | 1010.1 |
| 20260509054525 | 48 | 328 | 0.0 | 1.7 | 0.00 | 0.05 | 0.00 | 97 | 1010.1 |
| 20260509053525 | 48 | 328 | 0.0 | 1.7 | 0.00 | 0.05 | 0.00 | 97 | 1010.4 |
| 20260509052545 | 48 | 18 | 0.0 | 0.9 | 0.00 | 0.05 | 0.00 | 97 | 1010.5 |
| 20260509051525 | 48 | 36 | 0.0 | 1.7 | 0.00 | 0.05 | 0.00 | 97 | 1010.5 |
| 20260509050526 | 48 | 336 | 0.9 | 1.7 | 0.00 | 0.05 | 0.00 | 97 | 1010.5 |
| 20260509045526 | 49 | 326 | 0.0 | 1.7 | 0.00 | 0.05 | 0.00 | 97 | 1010.5 |
| 20260509044526 | 49 | 335 | 0.9 | 1.7 | 0.00 | 0.05 | 0.00 | 97 | 1010.6 |
| 20260509043527 | 49 | 316 | 0.0 | 1.7 | 0.00 | 0.05 | 0.00 | 97 | 1010.8 |
| 20260509042526 | 49 | 356 | 0.0 | 1.7 | 0.00 | 0.05 | 0.00 | 97 | 1011.0 |
| 20260509041527 | 49 | 342 | 0.0 | 1.7 | 0.00 | 0.05 | 0.00 | 96 | 1011.0 |
| 20260509040547 | 49 | 326 | 0.0 | 0.9 | 0.00 | 0.05 | 0.00 | 96 | 1011.2 |
| 20260509035527 | 49 | 339 | 0.0 | 0.9 | 0.00 | 0.05 | 0.05 | 96 | 1011.4 |
| 20260509034527 | 49 | 0.0 | 0.0 | 0.00 | 0.05 | 0.05 | 97 | 1011.6 | |
| 20260509033547 | 49 | 305 | 0.0 | 1.7 | 0.01 | 0.05 | 0.05 | 96 | 1011.6 |
| 20260509032527 | 50 | 348 | 0.0 | 0.9 | 0.01 | 0.05 | 0.05 | 96 | 1011.8 |
| 20260509031548 | 50 | 353 | 0.0 | 0.9 | 0.01 | 0.05 | 0.05 | 96 | 1011.8 |
| 20260509030528 | 50 | 333 | 0.0 | 0.9 | 0.01 | 0.05 | 0.05 | 96 | 1012.1 |
| 20260509025529 | 50 | 326 | 0.0 | 0.9 | 0.01 | 0.05 | 0.05 | 96 | 1012.1 |
| 20260509024528 | 50 | 354 | 0.0 | 1.7 | 0.01 | 0.05 | 0.05 | 96 | 1012.2 |
| 20260509023520 | 50 | 170 | 0.9 | 1.7 | 0.01 | 0.05 | 0.05 | 95 | 1012.3 |
| 20260509022520 | 50 | 356 | 0.9 | 2.6 | 0.00 | 0.04 | 0.04 | 95 | 1012.4 |
| 20260509021517 | 51 | 58 | 0.9 | 2.6 | 0.00 | 0.04 | 0.04 | 95 | 1012.2 |
| 20260509020519 | 50 | 264 | 0.0 | 1.7 | 0.00 | 0.04 | 0.04 | 94 | 1011.9 |
| 20260509015518 | 51 | 334 | 0.9 | 2.6 | 0.00 | 0.04 | 0.04 | 94 | 1011.8 |
| 20260509014518 | 51 | 224 | 0.0 | 1.7 | 0.00 | 0.04 | 0.04 | 94 | 1011.6 |
| 20260509013518 | 51 | 184 | 0.9 | 2.6 | 0.00 | 0.04 | 0.04 | 93 | 1011.3 |
| 20260509012538 | 51 | 327 | 0.9 | 2.6 | 0.00 | 0.04 | 0.04 | 93 | 1011.2 |
| 20260509011558 | 51 | 216 | 0.0 | 1.7 | 0.00 | 0.04 | 0.04 | 93 | 1011.2 |
| 20260509010519 | 51 | 316 | 0.9 | 1.7 | 0.00 | 0.04 | 0.04 | 93 | 1011.0 |
| 20260509005559 | 51 | 318 | 0.0 | 1.7 | 0.00 | 0.04 | 0.04 | 93 | 1010.9 |
| 20260509004519 | 51 | 317 | 0.0 | 1.7 | 0.00 | 0.04 | 0.04 | 92 | 1010.9 |
| 20260509003539 | 51 | 300 | 0.9 | 2.6 | 0.00 | 0.04 | 0.04 | 91 | 1010.8 |
| 20260509002519 | 52 | 327 | 0.9 | 1.7 | 0.00 | 0.04 | 0.04 | 90 | 1010.9 |
| 20260509001541 | 52 | 313 | 1.7 | 2.6 | 0.00 | 0.04 | 0.04 | 89 | 1010.8 |
| 20260509000519 | 52 | 140 | 0.9 | 2.6 | 0.00 | 0.04 | 0.04 | 89 | 1010.4 |
| 20260508235519 | 52 | 5 | 0.0 | 1.7 | 0.00 | 0.04 | 0.04 | 90 | 1010.7 |
| 20260508234517 | 53 | 323 | 0.9 | 1.7 | 0.00 | 0.04 | 0.04 | 90 | 1010.8 |
| 20260508233517 | 53 | 343 | 0.9 | 1.7 | 0.00 | 0.04 | 0.04 | 90 | 1010.8 |
| 20260508232517 | 53 | 345 | 0.0 | 1.7 | 0.00 | 0.04 | 0.04 | 89 | 1010.9 |
| 20260508231520 | 53 | 323 | 0.9 | 1.7 | 0.00 | 0.04 | 0.04 | 88 | 1011.0 |
| 20260508230521 | 54 | 340 | 0.9 | 1.7 | 0.00 | 0.04 | 0.04 | 88 | 1010.9 |
| 20260508225518 | 54 | 329 | 0.9 | 1.7 | 0.00 | 0.04 | 0.04 | 88 | 1010.9 |
| 20260508224538 | 54 | 344 | 0.0 | 1.7 | 0.00 | 0.04 | 0.04 | 88 | 1010.9 |
| 20260508223518 | 54 | 352 | 0.9 | 2.6 | 0.00 | 0.04 | 0.04 | 87 | 1011.2 |
| 20260508222518 | 54 | 352 | 0.9 | 2.6 | 0.00 | 0.04 | 0.04 | 86 | 1011.2 |
| 20260508221539 | 55 | 355 | 0.9 | 1.7 | 0.00 | 0.04 | 0.04 | 84 | 1011.0 |
| 20260508220519 | 56 | 339 | 0.9 | 1.7 | 0.00 | 0.04 | 0.04 | 83 | 1011.1 |
| 20260508215518 | 56 | 336 | 0.9 | 1.7 | 0.00 | 0.04 | 0.04 | 80 | 1011.1 |
| 20260508214519 | 56 | 321 | 0.9 | 1.7 | 0.00 | 0.04 | 0.04 | 82 | 1011.1 |
| 20260508213519 | 56 | 343 | 0.0 | 1.7 | 0.00 | 0.04 | 0.04 | 79 | 1011.1 |